createdAt,value
2022-08-18T00:02:18.737Z,68.33
2022-08-18T00:04:48.982Z,74.63
2022-08-18T00:07:33.281Z,74.23
2022-08-18T00:10:02.877Z,68.43
2022-08-18T00:12:40.970Z,77.37
2022-08-18T00:15:16.054Z,75.80
2022-08-18T00:17:44.824Z,73.70
2022-08-18T00:20:22.049Z,77.70
2022-08-18T00:22:50.881Z,79.00
2022-08-18T00:25:20.868Z,77.97
2022-08-18T00:27:49.136Z,80.50
2022-08-18T00:30:21.906Z,80.77
2022-08-18T00:32:57.798Z,71.50
2022-08-18T00:35:38.782Z,76.77
2022-08-18T00:38:09.079Z,78.57
2022-08-18T00:40:56.618Z,81.43
2022-08-18T00:43:47.505Z,81.13
2022-08-18T00:46:28.696Z,85.60
2022-08-18T00:48:58.032Z,84.53
2022-08-18T00:51:48.221Z,84.47
2022-08-18T00:54:37.936Z,82.93
2022-08-18T00:57:09.244Z,88.67
2022-08-18T01:00:02.739Z,89.67
2022-08-18T01:02:49.774Z,88.90
2022-08-18T01:05:50.649Z,86.87
2022-08-18T01:08:29.223Z,82.53
2022-08-18T01:11:03.388Z,83.83
2022-08-18T01:13:43.596Z,87.77
2022-08-18T01:16:33.581Z,87.97
2022-08-18T01:19:30.140Z,89.90
2022-08-18T01:22:44.048Z,91.37
2022-08-18T01:25:40.526Z,88.23
2022-08-18T01:28:09.108Z,87.30
2022-08-18T01:30:58.146Z,82.07
2022-08-18T01:33:46.439Z,82.70
2022-08-18T01:36:22.058Z,76.90
2022-08-18T01:38:53.595Z,78.33
2022-08-18T01:41:30.423Z,81.70
2022-08-18T01:44:02.390Z,80.00
2022-08-18T01:46:36.266Z,82.90
2022-08-18T01:49:08.522Z,86.00
2022-08-18T01:51:41.409Z,83.00
2022-08-18T01:54:18.069Z,85.93
2022-08-18T01:56:54.449Z,81.53
2022-08-18T01:59:29.271Z,82.07
2022-08-18T02:01:58.812Z,77.00
2022-08-18T02:04:38.960Z,81.97
2022-08-18T02:07:16.238Z,87.97
2022-08-18T02:09:52.771Z,86.37
2022-08-18T02:12:21.619Z,86.47
2022-08-18T02:14:50.565Z,90.10
2022-08-18T02:17:19.456Z,92.13
2022-08-18T02:19:48.609Z,88.10
2022-08-18T02:22:21.454Z,85.40
2022-08-18T02:24:50.287Z,84.13
2022-08-18T02:27:18.228Z,80.43
2022-08-18T02:29:46.582Z,84.77
2022-08-18T02:32:14.196Z,88.10
2022-08-18T02:34:42.872Z,87.37
2022-08-18T02:37:15.125Z,87.33
2022-08-18T02:39:43.359Z,87.73
2022-08-18T02:42:13.675Z,88.90
2022-08-18T02:44:42.785Z,88.60
2022-08-18T02:47:11.985Z,88.63
2022-08-18T02:49:40.237Z,88.67
2022-08-18T02:52:09.027Z,92.77
2022-08-18T02:54:36.720Z,91.63
2022-08-18T02:57:13.258Z,93.43
2022-08-18T02:59:42.164Z,87.40
2022-08-18T03:02:15.501Z,81.70
2022-08-18T03:04:43.100Z,83.90
2022-08-18T03:07:10.631Z,81.83
2022-08-18T03:09:39.586Z,80.30
2022-08-18T03:12:09.577Z,86.20
2022-08-18T03:14:40.235Z,82.90
2022-08-18T03:17:10.112Z,78.70
2022-08-18T03:19:38.296Z,83.30
2022-08-18T03:22:28.692Z,85.13
2022-08-18T03:24:59.024Z,82.97
2022-08-18T03:27:27.889Z,83.00
2022-08-18T03:29:55.861Z,89.27
2022-08-18T03:32:26.311Z,84.57
2022-08-18T03:34:54.223Z,89.33
2022-08-18T03:37:22.150Z,85.53
2022-08-18T03:39:52.678Z,87.03
2022-08-18T03:42:20.286Z,83.97
2022-08-18T03:44:47.796Z,89.10
2022-08-18T03:47:16.054Z,82.73
2022-08-18T03:49:43.547Z,85.13
2022-08-18T03:52:11.450Z,76.70
2022-08-18T03:54:39.990Z,75.60
2022-08-18T03:57:13.153Z,79.67
2022-08-18T03:59:43.705Z,77.40
2022-08-18T04:02:12.992Z,77.17
2022-08-18T04:04:42.990Z,77.63
2022-08-18T04:07:14.733Z,79.50
2022-08-18T04:09:43.137Z,77.73
2022-08-18T04:12:17.385Z,75.87
2022-08-18T04:14:50.188Z,76.00
2022-08-18T04:17:25.215Z,70.70
2022-08-18T04:19:56.306Z,75.23
2022-08-18T04:22:26.625Z,77.43
2022-08-18T04:24:55.741Z,73.73
2022-08-18T04:27:25.607Z,79.30
2022-08-18T04:29:53.194Z,72.43
2022-08-18T04:32:20.841Z,69.77
2022-08-18T04:34:48.812Z,69.20
2022-08-18T04:37:18.395Z,67.90
2022-08-18T04:39:46.395Z,67.27
2022-08-18T04:42:15.293Z,67.97
2022-08-18T04:44:43.520Z,68.10
2022-08-18T04:47:12.977Z,66.87
2022-08-18T04:49:40.527Z,69.30
2022-08-18T04:52:40.512Z,70.20
2022-08-18T04:55:11.283Z,62.30
2022-08-18T04:57:39.449Z,64.43
2022-08-18T05:00:13.181Z,65.33
2022-08-18T05:02:41.676Z,61.33
2022-08-18T05:05:11.326Z,57.83
2022-08-18T05:07:48.014Z,60.37
2022-08-18T05:10:17.938Z,60.37
2022-08-18T05:12:49.053Z,58.33
2022-08-18T05:15:19.004Z,58.37
2022-08-18T05:17:50.368Z,62.80
2022-08-18T05:20:20.064Z,58.47
2022-08-18T05:22:47.659Z,65.10
2022-08-18T05:25:16.268Z,59.73
2022-08-18T05:27:44.868Z,61.70
2022-08-18T05:30:15.335Z,60.20
2022-08-18T05:32:50.726Z,59.27
2022-08-18T05:35:37.209Z,60.13
2022-08-18T05:39:07.029Z,62.67
2022-08-18T05:41:44.749Z,60.10
2022-08-18T05:44:23.217Z,58.60
2022-08-18T05:47:11.911Z,60.63
2022-08-18T05:49:44.237Z,57.57
2022-08-18T05:53:13.873Z,58.13
2022-08-18T05:56:14.392Z,58.40
2022-08-18T05:58:55.729Z,57.17
2022-08-18T06:01:38.835Z,58.03
2022-08-18T06:04:29.740Z,58.40
2022-08-18T06:07:04.338Z,61.77
2022-08-18T06:09:52.175Z,62.20
2022-08-18T06:12:38.182Z,59.40
2022-08-18T06:15:40.868Z,60.23
2022-08-18T06:18:50.772Z,59.47
2022-08-18T06:21:59.825Z,60.50
2022-08-18T06:25:02.154Z,61.10
2022-08-18T06:28:10.978Z,59.30
2022-08-18T06:31:33.785Z,59.80
2022-08-18T06:35:02.357Z,55.33
2022-08-18T06:38:36.446Z,56.50
2022-08-18T06:41:41.673Z,55.37
2022-08-18T06:44:40.746Z,57.03
2022-08-18T06:47:31.478Z,60.53
2022-08-18T06:50:45.385Z,62.40
2022-08-18T06:53:26.779Z,64.00
2022-08-18T06:55:56.064Z,61.37
2022-08-18T06:58:31.142Z,57.50
2022-08-18T07:01:08.113Z,57.87
2022-08-18T07:03:55.019Z,54.63
2022-08-18T07:06:22.490Z,55.30
2022-08-18T07:08:55.614Z,58.13
2022-08-18T07:11:34.189Z,55.40
2022-08-18T07:14:23.628Z,57.20
2022-08-18T07:16:59.969Z,57.30
2022-08-18T07:19:33.065Z,55.90
2022-08-18T07:22:18.917Z,56.63
2022-08-18T07:24:55.284Z,58.37
2022-08-18T07:27:49.518Z,54.30
2022-08-18T07:30:19.692Z,52.47
2022-08-18T07:33:16.708Z,51.67
2022-08-18T07:36:05.784Z,51.30
2022-08-18T07:38:50.587Z,49.10
2022-08-18T07:41:37.911Z,49.77
2022-08-18T07:45:05.089Z,44.97
2022-08-18T07:48:37.095Z,48.73
2022-08-18T07:51:31.199Z,46.93
2022-08-18T07:54:55.823Z,47.43
2022-08-18T07:58:06.938Z,45.87
2022-08-18T08:01:13.086Z,45.30
2022-08-18T08:04:30.654Z,40.67
2022-08-18T08:07:25.322Z,42.10
2022-08-18T08:10:29.513Z,40.40
2022-08-18T08:13:55.301Z,39.63
2022-08-18T08:16:50.532Z,36.50
2022-08-18T08:20:19.717Z,38.93
2022-08-18T08:23:25.695Z,37.23
2022-08-18T08:27:19.393Z,35.73
2022-08-18T08:30:14.342Z,34.73
2022-08-18T08:33:05.562Z,33.10
2022-08-18T08:36:34.001Z,35.40
2022-08-18T08:39:16.521Z,33.30
2022-08-18T08:42:30.822Z,34.47
2022-08-18T08:45:03.611Z,33.50
2022-08-18T08:48:27.581Z,30.93
2022-08-18T08:51:43.357Z,33.93
2022-08-18T08:54:38.669Z,30.27
2022-08-18T08:57:54.387Z,30.67
2022-08-18T09:00:34.858Z,30.93
2022-08-18T09:04:19.690Z,28.17
2022-08-18T09:07:35.083Z,29.30
2022-08-18T09:10:58.141Z,25.30
2022-08-18T09:14:37.453Z,23.97
2022-08-18T09:17:42.340Z,23.30
2022-08-18T09:21:38.785Z,23.10
2022-08-18T09:24:51.369Z,22.40
2022-08-18T09:28:10.023Z,19.33
2022-08-18T09:31:09.743Z,20.90
2022-08-18T09:33:44.262Z,19.03
2022-08-18T09:37:15.858Z,19.40
2022-08-18T09:41:02.653Z,19.17
2022-08-18T09:44:11.993Z,19.40
2022-08-18T09:46:48.890Z,17.73
2022-08-18T09:49:54.632Z,19.87
2022-08-18T09:52:24.151Z,18.20
2022-08-18T09:55:00.040Z,18.60
2022-08-18T09:57:43.803Z,18.00
2022-08-18T10:00:15.857Z,16.27
2022-08-18T10:02:48.749Z,17.53
2022-08-18T10:05:19.318Z,17.70
2022-08-18T10:08:21.420Z,15.80
2022-08-18T10:11:50.942Z,17.17
2022-08-18T10:14:57.537Z,15.80
2022-08-18T10:18:46.746Z,17.07
2022-08-18T10:21:31.559Z,15.30
2022-08-18T10:24:36.537Z,13.60
2022-08-18T10:27:48.982Z,14.13
2022-08-18T10:30:56.568Z,13.20
2022-08-18T10:34:17.167Z,11.27
2022-08-18T10:37:06.411Z,12.83
2022-08-18T10:39:41.193Z,12.17
2022-08-18T10:43:45.398Z,12.93
2022-08-18T10:46:24.920Z,13.50
2022-08-18T10:49:12.531Z,12.07
2022-08-18T10:53:17.031Z,11.00
2022-08-18T10:56:26.862Z,10.90
2022-08-18T10:59:47.805Z,12.10
2022-08-18T11:03:42.673Z,11.37
2022-08-18T11:06:21.144Z,11.17
2022-08-18T11:09:01.731Z,11.27
2022-08-18T11:11:52.776Z,11.40
2022-08-18T11:15:22.679Z,12.07
2022-08-18T11:18:43.311Z,13.20
2022-08-18T11:21:42.584Z,12.13
2022-08-18T11:24:31.824Z,12.33
2022-08-18T11:27:19.050Z,11.13
2022-08-18T11:29:47.627Z,10.50
2022-08-18T11:32:51.788Z,11.83
2022-08-18T11:35:44.580Z,13.30
2022-08-18T11:38:23.064Z,11.00
2022-08-18T11:41:14.351Z,11.27
2022-08-18T11:43:48.012Z,10.10
2022-08-18T11:46:27.885Z,9.87
2022-08-18T11:49:15.972Z,11.33
2022-08-18T11:52:26.166Z,9.60
2022-08-18T11:55:23.991Z,9.40
2022-08-18T11:58:00.149Z,9.17
2022-08-18T12:00:48.996Z,8.10
2022-08-18T12:03:41.595Z,8.73
2022-08-18T12:06:31.922Z,8.90
2022-08-18T12:12:35.855Z,8.53
2022-08-18T12:18:28.327Z,8.00
2022-08-18T12:21:02.958Z,8.13
2022-08-18T12:23:39.096Z,9.07
2022-08-18T12:29:04.836Z,10.33
2022-08-18T12:31:42.276Z,8.90
2022-08-18T12:34:27.397Z,8.97
2022-08-18T12:37:01.244Z,8.70
2022-08-18T12:39:31.982Z,8.43
2022-08-18T12:41:59.953Z,8.43
2022-08-18T12:44:28.595Z,7.43
2022-08-18T12:46:56.845Z,7.40
2022-08-18T12:49:26.466Z,8.27
2022-08-18T12:51:55.802Z,8.20
2022-08-18T12:54:25.098Z,8.80
2022-08-18T12:56:57.875Z,7.23
2022-08-18T12:59:26.838Z,7.37
2022-08-18T13:02:00.660Z,6.87
2022-08-18T13:04:30.978Z,6.70
2022-08-18T13:07:04.818Z,6.70
2022-08-18T13:09:53.296Z,6.87
2022-08-18T13:12:27.333Z,6.23
2022-08-18T13:14:55.419Z,7.50
2022-08-18T13:17:32.196Z,6.60
2022-08-18T13:20:19.932Z,7.27
2022-08-18T13:22:48.493Z,5.17
2022-08-18T13:25:32.559Z,7.30
2022-08-18T13:28:06.500Z,6.57
2022-08-18T13:30:35.689Z,6.37
2022-08-18T13:33:06.088Z,7.40
2022-08-18T13:35:54.906Z,6.20
2022-08-18T13:38:27.234Z,6.93
2022-08-18T13:41:05.038Z,10.37
2022-08-18T13:43:44.642Z,11.80
2022-08-18T13:46:24.359Z,6.03
2022-08-18T13:49:02.334Z,6.57
2022-08-18T13:51:31.888Z,6.80
2022-08-18T13:54:26.581Z,6.90
2022-08-18T13:56:51.753Z,5.90
2022-08-18T13:59:22.715Z,7.40
2022-08-18T14:01:53.159Z,6.90
2022-08-18T14:04:22.949Z,6.60
2022-08-18T14:06:58.796Z,6.77
2022-08-18T14:09:37.358Z,6.47
2022-08-18T14:12:23.788Z,7.40
2022-08-18T14:14:57.035Z,8.40
2022-08-18T14:17:27.311Z,7.13
2022-08-18T14:20:21.816Z,6.80
2022-08-18T14:23:21.563Z,7.43
2022-08-18T14:26:09.823Z,7.70
2022-08-18T14:28:38.438Z,6.90
2022-08-18T14:31:11.815Z,5.47
2022-08-18T14:33:50.666Z,5.80
2022-08-18T14:36:29.850Z,6.07
2022-08-18T14:39:00.604Z,6.60
2022-08-18T14:41:30.694Z,5.00
2022-08-18T14:44:13.627Z,5.63
2022-08-18T14:46:52.021Z,5.70
2022-08-18T14:49:28.379Z,5.80
2022-08-18T14:52:03.302Z,5.40
2022-08-18T14:54:39.293Z,4.87
2022-08-18T14:57:13.758Z,5.80
2022-08-18T14:59:42.481Z,6.20
2022-08-18T15:02:13.623Z,5.37
2022-08-18T15:04:55.818Z,5.53
2022-08-18T15:07:26.874Z,5.53
2022-08-18T15:10:15.172Z,5.40
2022-08-18T15:12:44.818Z,5.93
2022-08-18T15:15:18.524Z,5.27
2022-08-18T15:17:50.234Z,5.27
2022-08-18T15:20:29.446Z,5.60
2022-08-18T15:23:28.092Z,5.20
2022-08-18T15:25:59.021Z,4.97
2022-08-18T15:28:27.563Z,4.70
2022-08-18T15:33:43.092Z,5.40
2022-08-18T15:36:16.339Z,5.27
2022-08-18T15:38:44.232Z,4.67
2022-08-18T15:41:44.330Z,4.80
2022-08-18T15:44:15.006Z,5.40
2022-08-18T15:46:51.400Z,4.70
2022-08-18T15:49:21.798Z,5.20
2022-08-18T15:51:52.536Z,5.60
2022-08-18T15:54:20.772Z,5.43
2022-08-18T15:56:57.681Z,5.47
2022-08-18T15:59:34.184Z,5.00
2022-08-18T16:02:11.953Z,5.30
2022-08-18T16:04:45.103Z,5.37
2022-08-18T16:07:14.965Z,5.33
2022-08-18T16:09:45.557Z,4.60
2022-08-18T16:12:13.094Z,4.70
2022-08-18T16:14:41.576Z,5.10
2022-08-18T16:17:18.320Z,5.30
2022-08-18T16:19:51.512Z,5.10
2022-08-18T16:22:19.062Z,4.90
2022-08-18T16:24:55.083Z,4.63
2022-08-18T16:27:22.826Z,4.70
2022-08-18T16:29:50.357Z,3.63
2022-08-18T16:32:18.167Z,4.27
2022-08-18T16:34:46.222Z,5.30
2022-08-18T16:37:13.756Z,4.57
2022-08-18T16:39:41.314Z,4.17
2022-08-18T16:42:08.952Z,5.03
2022-08-18T16:44:36.595Z,4.60
2022-08-18T16:47:07.397Z,4.60
2022-08-18T16:49:35.651Z,4.70
2022-08-18T16:52:04.040Z,4.30
2022-08-18T16:54:33.507Z,5.00
2022-08-18T16:57:01.612Z,4.47
2022-08-18T16:59:47.457Z,4.70
2022-08-18T17:02:36.051Z,4.30
2022-08-18T17:05:04.922Z,4.03
2022-08-18T17:07:36.414Z,4.30
2022-08-18T17:10:07.318Z,4.10
2022-08-18T17:12:34.856Z,4.67
2022-08-18T17:15:02.522Z,3.93
2022-08-18T17:17:31.837Z,4.67
2022-08-18T17:19:59.318Z,4.53
2022-08-18T17:22:26.924Z,5.37
2022-08-18T17:25:03.362Z,6.27
2022-08-18T17:27:37.989Z,4.50
2022-08-18T17:30:18.053Z,4.33
2022-08-18T17:33:08.473Z,5.60
2022-08-18T17:35:44.663Z,5.40
2022-08-18T17:38:38.412Z,4.97
2022-08-18T17:41:07.406Z,4.80
2022-08-18T17:46:33.354Z,5.03
2022-08-18T17:49:14.508Z,4.90
2022-08-18T17:51:55.444Z,4.57
2022-08-18T17:54:42.053Z,5.40
2022-08-18T17:57:37.472Z,6.37
2022-08-18T18:00:13.933Z,5.17
2022-08-18T18:02:46.467Z,4.93
2022-08-18T18:05:21.105Z,4.70
2022-08-18T18:07:50.483Z,4.20
2022-08-18T18:11:04.292Z,4.40
2022-08-18T18:13:34.463Z,5.80
2022-08-18T18:16:37.548Z,5.87
2022-08-18T18:19:13.370Z,4.40
2022-08-18T18:22:01.050Z,5.07
2022-08-18T18:24:38.250Z,4.70
2022-08-18T18:27:37.057Z,5.67
2022-08-18T18:30:29.981Z,5.10
2022-08-18T18:33:16.128Z,5.17
2022-08-18T18:35:57.917Z,5.60
2022-08-18T18:38:35.255Z,5.00
2022-08-18T18:41:13.520Z,5.00
2022-08-18T18:43:49.334Z,5.23
2022-08-18T18:46:18.869Z,4.90
2022-08-18T18:49:28.501Z,5.77
2022-08-18T18:52:30.447Z,5.53
2022-08-18T18:55:35.912Z,4.90
2022-08-18T18:59:17.134Z,5.47
2022-08-18T19:02:13.694Z,5.47
2022-08-18T19:05:35.315Z,5.63
2022-08-18T19:08:41.180Z,5.37
2022-08-18T19:11:42.785Z,4.87
2022-08-18T19:14:28.916Z,5.00
2022-08-18T19:17:26.156Z,5.67
2022-08-18T19:20:23.576Z,4.80
2022-08-18T19:23:44.835Z,6.00
2022-08-18T19:26:27.606Z,5.10
2022-08-18T19:29:13.885Z,5.30
2022-08-18T19:32:16.566Z,5.60
2022-08-18T19:34:51.592Z,5.00
2022-08-18T19:38:01.848Z,4.70
2022-08-18T19:41:06.887Z,5.33
2022-08-18T19:44:03.709Z,4.63
2022-08-18T19:46:57.854Z,5.00
2022-08-18T19:50:16.114Z,6.17
2022-08-18T19:53:26.238Z,5.13
2022-08-18T19:56:41.549Z,5.20
2022-08-18T19:59:34.022Z,5.20
2022-08-18T20:03:04.034Z,4.63
2022-08-18T20:05:55.745Z,5.00
2022-08-18T20:09:34.333Z,4.80
2022-08-18T20:12:55.876Z,5.67
2022-08-18T20:15:28.711Z,4.67
2022-08-18T20:17:59.114Z,5.10
2022-08-18T20:20:40.616Z,4.60
2022-08-18T20:23:38.982Z,5.80
2022-08-18T20:26:35.277Z,5.17
2022-08-18T20:29:03.638Z,5.60
2022-08-18T20:32:04.344Z,4.83
2022-08-18T20:34:35.983Z,6.23
2022-08-18T20:37:09.080Z,5.17
2022-08-18T20:39:55.039Z,5.10
2022-08-18T20:42:42.732Z,4.97
2022-08-18T20:45:33.517Z,5.33
2022-08-18T20:48:45.720Z,4.87
2022-08-18T20:51:28.700Z,4.97
2022-08-18T20:54:19.047Z,5.40
2022-08-18T20:56:59.821Z,5.60
2022-08-18T20:59:52.580Z,5.90
2022-08-18T21:02:38.570Z,5.13
2022-08-18T21:05:10.691Z,5.50
2022-08-18T21:08:34.902Z,5.33
2022-08-18T21:11:32.461Z,6.20
2022-08-18T21:14:04.459Z,6.00
2022-08-18T21:16:45.264Z,6.00
2022-08-18T21:19:30.059Z,5.30
2022-08-18T21:22:04.681Z,5.57
2022-08-18T21:24:43.095Z,5.00
2022-08-18T21:27:36.123Z,5.67
2022-08-18T21:30:24.799Z,6.17
2022-08-18T21:32:53.571Z,5.80
2022-08-18T21:35:38.192Z,5.57
2022-08-18T21:38:12.713Z,5.87
2022-08-18T21:40:52.909Z,5.97
2022-08-18T21:43:49.539Z,6.03
2022-08-18T21:46:31.602Z,6.37
2022-08-18T21:49:04.345Z,6.30
2022-08-18T21:51:48.733Z,7.30
2022-08-18T21:54:34.635Z,5.63
2022-08-18T21:57:59.677Z,6.20
2022-08-18T22:01:15.012Z,5.57
2022-08-18T22:04:21.976Z,5.47
2022-08-18T22:07:08.031Z,5.57
2022-08-18T22:10:45.153Z,6.97
2022-08-18T22:13:48.591Z,5.80
2022-08-18T22:16:39.095Z,6.43
2022-08-18T22:19:20.218Z,5.63
2022-08-18T22:22:28.481Z,6.47
2022-08-18T22:24:59.736Z,6.20
2022-08-18T22:27:29.601Z,7.10
2022-08-18T22:30:05.587Z,6.13
2022-08-18T22:32:38.362Z,6.30
2022-08-18T22:35:08.768Z,6.23
2022-08-18T22:37:50.560Z,6.37
2022-08-18T22:40:21.962Z,6.43
2022-08-18T22:42:49.827Z,6.87
2022-08-18T22:45:18.922Z,7.70
2022-08-18T22:47:46.403Z,6.80
2022-08-18T22:50:15.246Z,6.73
2022-08-18T22:52:49.728Z,7.53
2022-08-18T22:55:24.054Z,7.17
2022-08-18T22:57:56.295Z,7.70
2022-08-18T23:00:25.794Z,7.40
2022-08-18T23:02:55.503Z,7.27
2022-08-18T23:05:24.804Z,7.37
2022-08-18T23:07:52.807Z,7.63
2022-08-18T23:10:21.662Z,7.67
2022-08-18T23:12:50.025Z,8.60
2022-08-18T23:15:20.536Z,7.57
2022-08-18T23:17:48.319Z,7.30
2022-08-18T23:20:19.434Z,7.87
2022-08-18T23:22:48.555Z,6.83
2022-08-18T23:25:17.417Z,8.37
2022-08-18T23:27:47.228Z,8.27
2022-08-18T23:30:15.480Z,8.20
2022-08-18T23:32:43.713Z,7.20
2022-08-18T23:35:11.348Z,7.60
2022-08-18T23:37:40.324Z,8.20
2022-08-18T23:40:15.733Z,7.53
2022-08-18T23:42:43.375Z,8.00
2022-08-18T23:45:11.562Z,8.30
2022-08-18T23:47:41.430Z,7.60
2022-08-18T23:50:12.804Z,9.30
2022-08-18T23:52:41.777Z,8.90
2022-08-18T23:55:15.304Z,8.20
2022-08-18T23:57:42.933Z,8.30
